Main page
METAR-TAF:

METAR-TAF

Airports :

Belgrade, Serbia

Belgrade Nikola Tesla Airport

latitude: 44-49N, longitude: 020-17E, elevation: 96 m

Current weather observation

The report was made 29 minutes ago, at 07:30 UTC
Wind 6 kt from the West, varying between Southwest and West
Temperature 16°C
Humidity 59%
Pressure 1022 hPa
Visibility 10 km or more
no clouds below 1500 m and no cumulonimbus

METAR: LYBE 240730Z 26006KT 220V280 CAVOK 16/08 Q1022 NOSIG

Time: 08:59 (07:59 UTC)

Forecast

The report was made 2 hours and 59 minutes ago, at 05:00 UTC
Forecast valid from 24 at 06 UTC to 25 at 06 UTC
Wind 8 kt from the West/Southwest
Visibility 10 km or more
no clouds below 1500 m and no cumulonimbus
Becoming
from 24 at 10 UTC to 24 at 12 UTC
Wind 10 kt from the West/Northwest

TAF: LYBE 240500Z 2406/2506 24008KT CAVOK TX23/2413Z TN10/2505Z BECMG 2410/2412 30010KT

Weather observations and forecasts of more than 4000 airports (METAR and TAF reports).

The available stations are represented by yellow and red dots on the map.

Hover mouse over dot to see the name of the station.

Then click to see weather observations and forecasts.

To change the map : click on the green buttons with a black cross to zoom in, on the green button with a dash to zoom out, or on the green arrows for adjacent maps.


METAR-TAF: